createdAt,value
2018-08-24T00:00:48.400Z,100.00
2018-08-24T00:03:15.437Z,100.00
2018-08-24T00:05:42.372Z,100.00
2018-08-24T00:08:09.306Z,100.00
2018-08-24T00:10:36.216Z,100.00
2018-08-24T00:13:03.154Z,100.00
2018-08-24T00:15:30.081Z,100.00
2018-08-24T00:17:57.009Z,100.00
2018-08-24T00:20:23.946Z,100.00
2018-08-24T00:22:50.876Z,100.00
2018-08-24T00:25:17.773Z,100.00
2018-08-24T00:27:44.733Z,100.00
2018-08-24T00:30:11.654Z,100.00
2018-08-24T00:32:38.561Z,100.00
2018-08-24T00:35:05.481Z,100.00
2018-08-24T00:37:32.400Z,100.00
2018-08-24T00:39:59.325Z,100.00
2018-08-24T00:42:26.216Z,100.00
2018-08-24T00:44:53.132Z,100.00
2018-08-24T00:47:20.068Z,100.00
2018-08-24T00:49:46.969Z,100.00
2018-08-24T00:52:13.864Z,100.00
2018-08-24T00:54:40.775Z,100.00
2018-08-24T00:57:07.682Z,100.00
2018-08-24T00:59:34.564Z,100.00
2018-08-24T01:02:01.464Z,100.00
2018-08-24T01:04:34.445Z,100.00
2018-08-24T01:07:06.589Z,100.00
2018-08-24T01:09:34.036Z,100.00
2018-08-24T01:12:06.767Z,100.00
2018-08-24T01:14:33.656Z,100.00
2018-08-24T01:17:06.221Z,100.00
2018-08-24T01:19:33.133Z,100.00
2018-08-24T01:22:00.129Z,100.00
2018-08-24T01:24:29.076Z,100.00
2018-08-24T01:27:04.218Z,100.00
2018-08-24T01:29:32.284Z,100.00
2018-08-24T01:31:59.204Z,100.00
2018-08-24T01:34:26.138Z,100.00
2018-08-24T01:36:53.053Z,100.00
2018-08-24T01:39:19.992Z,100.00
2018-08-24T01:41:46.981Z,100.00
2018-08-24T01:44:13.920Z,100.00
2018-08-24T01:46:40.840Z,100.00
2018-08-24T01:49:07.825Z,100.00
2018-08-24T01:51:34.784Z,100.00
2018-08-24T01:54:01.724Z,100.00
2018-08-24T01:56:28.641Z,100.00
2018-08-24T01:58:55.567Z,100.00
2018-08-24T02:01:22.496Z,100.00
2018-08-24T02:03:49.421Z,100.00
2018-08-24T02:06:16.348Z,100.00
2018-08-24T02:08:43.294Z,100.00
2018-08-24T02:11:16.009Z,100.00
2018-08-24T02:13:48.683Z,100.00
2018-08-24T02:16:15.644Z,100.00
2018-08-24T02:18:48.382Z,100.00
2018-08-24T02:21:21.031Z,100.00
2018-08-24T02:23:47.952Z,100.00
2018-08-24T02:26:14.877Z,100.00
2018-08-24T02:28:41.792Z,100.00
2018-08-24T02:31:08.696Z,100.00
2018-08-24T02:33:37.400Z,100.00
2018-08-24T02:36:04.345Z,100.00
2018-08-24T02:38:31.261Z,100.00
2018-08-24T02:40:58.170Z,100.00
2018-08-24T02:43:25.115Z,100.00
2018-08-24T02:45:52.024Z,100.00
2018-08-24T02:48:18.920Z,100.00
2018-08-24T02:50:45.853Z,100.00
2018-08-24T02:53:12.776Z,100.00
2018-08-24T02:55:39.684Z,100.00
2018-08-24T02:58:06.623Z,100.00
2018-08-24T03:00:33.549Z,100.00
2018-08-24T03:03:00.453Z,100.00
2018-08-24T03:05:27.555Z,100.00
2018-08-24T03:07:54.333Z,100.00
2018-08-24T03:10:21.248Z,100.00
2018-08-24T03:12:48.192Z,100.00
2018-08-24T03:15:15.097Z,100.00
2018-08-24T03:17:47.778Z,100.00
2018-08-24T03:20:14.733Z,100.00
2018-08-24T03:22:41.693Z,100.00
2018-08-24T03:25:08.616Z,100.00
2018-08-24T03:27:35.547Z,100.00
2018-08-24T03:30:02.502Z,100.00
2018-08-24T03:32:29.412Z,100.00
2018-08-24T03:34:56.353Z,100.00
2018-08-24T03:37:23.296Z,100.00
2018-08-24T03:39:50.225Z,100.00
2018-08-24T03:42:17.545Z,100.00
2018-08-24T03:44:44.630Z,100.00
2018-08-24T03:47:11.530Z,100.00
2018-08-24T03:49:38.481Z,100.00
2018-08-24T03:52:05.433Z,100.00
2018-08-24T03:54:32.362Z,100.00
2018-08-24T03:56:59.316Z,100.00
2018-08-24T03:59:26.681Z,100.00
2018-08-24T04:01:54.730Z,100.00
2018-08-24T04:04:21.702Z,100.00
2018-08-24T04:06:48.772Z,100.00
2018-08-24T04:09:15.720Z,100.00
2018-08-24T04:11:42.830Z,100.00
2018-08-24T04:14:09.773Z,100.00
2018-08-24T04:16:42.441Z,100.00
2018-08-24T04:19:14.938Z,100.00
2018-08-24T04:21:41.884Z,100.00
2018-08-24T04:24:08.890Z,100.00
2018-08-24T04:26:35.856Z,100.00
2018-08-24T04:29:02.768Z,100.00
2018-08-24T04:31:29.685Z,100.00
2018-08-24T04:33:56.674Z,100.00
2018-08-24T04:36:23.600Z,100.00
2018-08-24T04:38:50.519Z,100.00
2018-08-24T04:41:17.447Z,100.00
2018-08-24T04:43:44.354Z,100.00
2018-08-24T04:46:11.282Z,100.00
2018-08-24T04:48:38.212Z,100.00
2018-08-24T04:51:05.191Z,100.00
2018-08-24T04:53:32.081Z,100.00
2018-08-24T04:55:59.009Z,100.00
2018-08-24T04:58:25.939Z,100.00
2018-08-24T05:00:52.834Z,100.00
2018-08-24T05:03:19.748Z,100.00
2018-08-24T05:05:53.465Z,100.00
2018-08-24T05:08:20.356Z,100.00
2018-08-24T05:10:47.280Z,100.00
2018-08-24T05:13:14.320Z,100.00
2018-08-24T05:15:41.246Z,100.00
2018-08-24T05:18:08.175Z,100.00
2018-08-24T05:20:35.118Z,100.00
2018-08-24T05:23:02.080Z,100.00
2018-08-24T05:25:29.023Z,100.00
2018-08-24T05:27:55.975Z,100.00
2018-08-24T05:30:22.994Z,100.00
2018-08-24T05:32:49.921Z,100.00
2018-08-24T05:35:16.849Z,100.00
2018-08-24T05:37:43.748Z,100.00
2018-08-24T05:40:10.664Z,100.00
2018-08-24T05:42:37.596Z,100.00
2018-08-24T05:45:11.844Z,100.00
2018-08-24T05:47:38.761Z,100.00
2018-08-24T05:50:05.813Z,100.00
2018-08-24T05:52:32.740Z,100.00
2018-08-24T05:54:59.657Z,100.00
2018-08-24T05:57:26.544Z,100.00
2018-08-24T05:59:53.450Z,100.00
2018-08-24T06:02:20.400Z,100.00
2018-08-24T06:04:47.341Z,100.00
2018-08-24T06:07:14.264Z,100.00
2018-08-24T06:09:41.182Z,100.00
2018-08-24T06:12:08.135Z,100.00
2018-08-24T06:14:35.105Z,100.00
2018-08-24T06:17:07.873Z,100.00
2018-08-24T06:19:34.785Z,100.00
2018-08-24T06:22:01.736Z,100.00
2018-08-24T06:24:28.683Z,100.00
2018-08-24T06:26:55.640Z,100.00
2018-08-24T06:29:22.601Z,100.00
2018-08-24T06:31:49.530Z,100.00
2018-08-24T06:34:16.452Z,100.00
2018-08-24T06:36:43.390Z,100.00
2018-08-24T06:39:11.992Z,100.00
2018-08-24T06:41:38.971Z,100.00
2018-08-24T06:44:06.009Z,100.00
2018-08-24T06:46:32.944Z,100.00
2018-08-24T06:48:59.863Z,100.00
2018-08-24T06:51:26.784Z,100.00
2018-08-24T06:53:53.827Z,100.00
2018-08-24T06:56:20.675Z,100.00
2018-08-24T06:58:47.605Z,100.00
2018-08-24T07:01:14.502Z,100.00
2018-08-24T07:03:41.470Z,100.00
2018-08-24T07:06:08.393Z,100.00
2018-08-24T07:08:35.324Z,100.00
2018-08-24T07:11:02.290Z,100.00
2018-08-24T07:13:29.239Z,100.00
2018-08-24T07:15:56.199Z,100.00
2018-08-24T07:18:23.124Z,100.00
2018-08-24T07:20:50.052Z,100.00
2018-08-24T07:23:16.999Z,100.00
2018-08-24T07:25:43.922Z,100.00
2018-08-24T07:28:10.852Z,100.00
2018-08-24T07:30:37.776Z,100.00
2018-08-24T07:33:04.736Z,100.00
2018-08-24T07:35:31.679Z,100.00
2018-08-24T07:37:58.642Z,100.00
2018-08-24T07:40:25.573Z,100.00
2018-08-24T07:42:52.504Z,100.00
2018-08-24T07:45:19.428Z,100.00
2018-08-24T07:47:46.361Z,100.00
2018-08-24T07:50:13.337Z,100.00
2018-08-24T07:52:40.295Z,100.00
2018-08-24T07:55:07.244Z,100.00
2018-08-24T07:57:34.175Z,100.00
2018-08-24T08:00:01.076Z,100.00
2018-08-24T08:02:33.625Z,100.00
2018-08-24T08:05:00.536Z,100.00
2018-08-24T08:07:27.509Z,100.00
2018-08-24T08:09:54.426Z,100.00
2018-08-24T08:12:21.344Z,100.00
2018-08-24T08:14:54.035Z,100.00
2018-08-24T08:17:20.970Z,100.00
2018-08-24T08:19:47.860Z,100.00
2018-08-24T08:22:14.825Z,100.00
2018-08-24T08:24:41.817Z,100.00
2018-08-24T08:27:08.697Z,100.00
2018-08-24T08:29:41.501Z,100.00
2018-08-24T08:32:08.392Z,100.00
2018-08-24T08:34:39.916Z,100.00
2018-08-24T08:37:06.851Z,100.00
2018-08-24T08:39:33.797Z,100.00
2018-08-24T08:42:00.728Z,100.00
2018-08-24T08:44:27.664Z,100.00
2018-08-24T08:46:54.614Z,100.00
2018-08-24T08:49:21.542Z,100.00
2018-08-24T08:51:48.477Z,100.00
2018-08-24T08:54:15.397Z,100.00
2018-08-24T08:56:42.323Z,100.00
2018-08-24T08:59:09.244Z,100.00
2018-08-24T09:01:36.230Z,100.00
2018-08-24T09:04:04.688Z,100.00
2018-08-24T09:06:31.755Z,100.00
2018-08-24T09:08:58.621Z,100.00
2018-08-24T09:11:25.576Z,100.00
2018-08-24T09:13:52.518Z,100.00
2018-08-24T09:16:20.813Z,100.00
2018-08-24T09:18:53.613Z,100.00
2018-08-24T09:21:26.329Z,100.00
2018-08-24T09:23:59.001Z,100.00
2018-08-24T09:26:31.718Z,100.00
2018-08-24T09:29:04.476Z,100.00
2018-08-24T09:31:33.441Z,100.00
2018-08-24T09:34:00.664Z,100.00
2018-08-24T09:36:29.203Z,100.00
2018-08-24T09:38:56.151Z,100.00
2018-08-24T09:41:23.264Z,100.00
2018-08-24T09:43:57.826Z,100.00
2018-08-24T09:46:30.668Z,100.00
2018-08-24T09:49:03.594Z,100.00
2018-08-24T09:51:30.545Z,100.00
2018-08-24T09:54:04.915Z,100.00
2018-08-24T09:56:32.856Z,100.00
2018-08-24T09:59:01.456Z,100.00
2018-08-24T10:01:34.905Z,100.00
2018-08-24T10:04:08.450Z,100.00
2018-08-24T10:06:41.839Z,100.00
2018-08-24T10:09:10.718Z,100.00
2018-08-24T10:11:37.717Z,100.00
2018-08-24T10:14:04.912Z,100.00
2018-08-24T10:16:32.053Z,100.00
2018-08-24T10:19:00.434Z,100.00
2018-08-24T10:21:27.595Z,100.00
2018-08-24T10:23:55.709Z,100.00
2018-08-24T10:26:23.044Z,100.00
2018-08-24T10:28:49.949Z,100.00
2018-08-24T10:31:17.929Z,100.00
2018-08-24T10:33:44.895Z,100.00
2018-08-24T10:36:11.944Z,100.00
2018-08-24T10:38:39.279Z,100.00
2018-08-24T10:41:07.030Z,100.00
2018-08-24T10:43:34.015Z,100.00
2018-08-24T10:46:00.951Z,100.00
2018-08-24T10:48:27.977Z,93.50
2018-08-24T10:50:54.957Z,100.00
2018-08-24T10:53:22.117Z,100.00
2018-08-24T10:55:50.047Z,100.00
2018-08-24T10:58:17.132Z,100.00
2018-08-24T11:00:44.400Z,100.00
2018-08-24T11:03:11.328Z,100.00
2018-08-24T11:05:38.248Z,100.00
2018-08-24T11:08:05.157Z,100.00
2018-08-24T11:10:32.636Z,100.00
2018-08-24T11:12:59.573Z,100.00
2018-08-24T11:15:26.518Z,100.00
2018-08-24T11:17:59.066Z,100.00
2018-08-24T11:20:26.001Z,100.00
2018-08-24T11:22:52.931Z,100.00
2018-08-24T11:25:19.856Z,100.00
2018-08-24T11:27:46.774Z,100.00
2018-08-24T11:30:13.707Z,100.00
2018-08-24T11:32:40.612Z,100.00
2018-08-24T11:35:07.556Z,100.00
2018-08-24T11:37:34.485Z,100.00
2018-08-24T11:40:01.486Z,100.00
2018-08-24T11:42:28.745Z,100.00
2018-08-24T11:44:55.692Z,100.00
2018-08-24T11:47:22.642Z,100.00
2018-08-24T11:49:50.786Z,100.00
2018-08-24T11:52:18.666Z,100.00
2018-08-24T11:54:45.576Z,100.00
2018-08-24T11:57:12.498Z,100.00
2018-08-24T11:59:39.463Z,100.00
2018-08-24T12:02:06.466Z,100.00
2018-08-24T12:04:33.408Z,100.00
2018-08-24T12:07:00.344Z,100.00
2018-08-24T12:09:27.273Z,100.00
2018-08-24T12:11:55.173Z,100.00
2018-08-24T12:14:22.148Z,100.00
2018-08-24T12:16:49.052Z,100.00
2018-08-24T12:19:16.013Z,100.00
2018-08-24T12:21:43.043Z,100.00
2018-08-24T12:24:09.896Z,100.00
2018-08-24T12:26:36.828Z,100.00
2018-08-24T12:29:03.880Z,100.00
2018-08-24T12:31:30.854Z,100.00
2018-08-24T12:33:57.815Z,93.02
2018-08-24T12:36:24.769Z,88.16
2018-08-24T12:38:51.688Z,90.53
2018-08-24T12:41:18.655Z,84.27
2018-08-24T12:43:45.569Z,84.76
2018-08-24T12:46:12.451Z,82.31
2018-08-24T12:48:39.388Z,81.94
2018-08-24T12:51:06.304Z,80.41
2018-08-24T12:53:33.239Z,83.15
2018-08-24T12:56:00.181Z,89.25
2018-08-24T12:58:27.144Z,88.96
2018-08-24T13:00:54.111Z,84.36
2018-08-24T13:03:21.037Z,73.96
2018-08-24T13:05:47.988Z,68.46
2018-08-24T13:08:14.916Z,68.74
2018-08-24T13:10:43.561Z,68.17
2018-08-24T13:13:10.556Z,69.34
2018-08-24T13:15:37.497Z,69.58
2018-08-24T13:18:05.152Z,70.47
2018-08-24T13:20:32.085Z,68.83
2018-08-24T13:23:00.304Z,66.29
2018-08-24T13:25:27.229Z,68.35
2018-08-24T13:27:54.279Z,66.89
2018-08-24T13:30:21.201Z,58.33
2018-08-24T13:32:48.140Z,57.74
2018-08-24T13:35:15.077Z,57.76
2018-08-24T13:37:42.001Z,61.30
2018-08-24T13:40:08.900Z,62.16
2018-08-24T13:42:35.824Z,60.23
2018-08-24T13:45:02.795Z,61.08
2018-08-24T13:47:29.843Z,61.37
2018-08-24T13:49:56.664Z,61.47
2018-08-24T13:52:23.701Z,62.63
2018-08-24T13:54:50.665Z,65.83
2018-08-24T13:57:17.568Z,67.42
2018-08-24T13:59:44.628Z,69.26
2018-08-24T14:02:11.529Z,69.24
2018-08-24T14:04:38.450Z,69.37
2018-08-24T14:07:05.424Z,66.27
2018-08-24T14:09:32.349Z,64.46
2018-08-24T14:11:59.281Z,63.78
2018-08-24T14:14:26.201Z,62.99
2018-08-24T14:16:53.145Z,64.08
2018-08-24T14:19:20.053Z,65.57
2018-08-24T14:21:46.985Z,66.30
2018-08-24T14:24:13.906Z,68.30
2018-08-24T14:26:41.057Z,69.83
2018-08-24T14:29:08.152Z,73.17
2018-08-24T14:31:35.039Z,75.85
2018-08-24T14:34:02.009Z,84.81
2018-08-24T14:36:28.948Z,100.00
2018-08-24T14:38:55.853Z,100.00
2018-08-24T14:41:22.873Z,100.00
2018-08-24T14:43:49.898Z,100.00
2018-08-24T14:46:16.882Z,100.00
2018-08-24T14:48:43.985Z,100.00
2018-08-24T14:51:10.899Z,100.00
2018-08-24T14:53:37.841Z,100.00
2018-08-24T14:56:04.806Z,100.00
2018-08-24T14:58:31.740Z,100.00
2018-08-24T15:00:58.686Z,100.00
2018-08-24T15:03:25.616Z,100.00
2018-08-24T15:05:52.533Z,100.00
2018-08-24T15:08:19.505Z,100.00
2018-08-24T15:10:46.416Z,100.00
2018-08-24T15:13:13.337Z,100.00
2018-08-24T15:15:40.293Z,100.00
2018-08-24T15:18:07.225Z,100.00
2018-08-24T15:20:34.160Z,100.00
2018-08-24T15:23:01.243Z,100.00
2018-08-24T15:25:28.285Z,100.00
2018-08-24T15:27:55.604Z,100.00
2018-08-24T15:30:23.311Z,100.00
2018-08-24T15:32:50.252Z,100.00
2018-08-24T15:35:17.281Z,100.00
2018-08-24T15:37:44.102Z,100.00
2018-08-24T15:40:11.012Z,100.00
2018-08-24T15:42:37.925Z,100.00
2018-08-24T15:45:05.945Z,100.00
2018-08-24T15:47:32.853Z,100.00
2018-08-24T15:49:59.779Z,100.00
2018-08-24T15:52:26.704Z,100.00
2018-08-24T15:54:53.609Z,100.00
2018-08-24T15:57:20.534Z,100.00
2018-08-24T15:59:47.440Z,100.00
2018-08-24T16:02:14.356Z,100.00
2018-08-24T16:04:41.301Z,100.00
2018-08-24T16:07:08.220Z,100.00
2018-08-24T16:09:35.121Z,100.00
2018-08-24T16:12:02.052Z,100.00
2018-08-24T16:14:28.957Z,100.00
2018-08-24T16:16:55.874Z,100.00
2018-08-24T16:19:22.810Z,100.00
2018-08-24T16:21:49.749Z,100.00
2018-08-24T16:24:16.696Z,100.00
2018-08-24T16:26:43.637Z,100.00
2018-08-24T16:29:10.597Z,100.00
2018-08-24T16:31:37.526Z,100.00
2018-08-24T16:34:04.510Z,100.00
2018-08-24T16:36:31.449Z,100.00
2018-08-24T16:38:58.457Z,100.00
2018-08-24T16:41:25.337Z,100.00
2018-08-24T16:46:25.926Z,100.00
2018-08-24T16:48:52.851Z,100.00
2018-08-24T16:51:19.793Z,100.00
2018-08-24T16:56:20.389Z,100.00
2018-08-24T16:58:47.325Z,100.00
2018-08-24T17:01:14.284Z,100.00
2018-08-24T17:03:41.219Z,100.00
2018-08-24T17:06:08.165Z,100.00
2018-08-24T17:08:35.386Z,100.00
2018-08-24T17:11:02.372Z,100.00
2018-08-24T17:13:29.297Z,100.00
2018-08-24T17:15:56.346Z,100.00
2018-08-24T17:18:23.304Z,100.00
2018-08-24T17:20:50.220Z,100.00
2018-08-24T17:23:17.202Z,100.00
2018-08-24T17:25:44.160Z,100.00
2018-08-24T17:28:11.077Z,100.00
2018-08-24T17:30:38.040Z,100.00
2018-08-24T17:33:05.424Z,100.00
2018-08-24T17:35:32.412Z,100.00
2018-08-24T17:37:59.329Z,100.00
2018-08-24T17:40:26.293Z,100.00
2018-08-24T17:42:55.053Z,100.00
2018-08-24T17:45:21.981Z,100.00
2018-08-24T17:47:49.121Z,100.00
2018-08-24T17:50:16.048Z,100.00
2018-08-24T17:52:43.033Z,100.00
2018-08-24T17:55:09.965Z,100.00
2018-08-24T17:57:36.893Z,100.00
2018-08-24T18:00:03.900Z,100.00
2018-08-24T18:02:30.883Z,100.00
2018-08-24T18:04:57.822Z,100.00
2018-08-24T18:07:24.872Z,100.00
2018-08-24T18:09:51.745Z,100.00
2018-08-24T18:12:18.710Z,100.00
2018-08-24T18:14:45.719Z,100.00
2018-08-24T18:17:12.807Z,100.00
2018-08-24T18:19:39.751Z,100.00
2018-08-24T18:22:06.725Z,100.00
2018-08-24T18:24:33.798Z,100.00
2018-08-24T18:27:00.620Z,100.00
2018-08-24T18:29:27.630Z,100.00
2018-08-24T18:31:54.600Z,100.00
2018-08-24T18:34:21.574Z,100.00
2018-08-24T18:36:48.581Z,100.00
2018-08-24T18:39:15.544Z,100.00
2018-08-24T18:41:42.498Z,100.00
2018-08-24T18:44:09.996Z,100.00
2018-08-24T18:46:36.998Z,100.00
2018-08-24T18:49:04.109Z,100.00
2018-08-24T18:51:31.020Z,100.00
2018-08-24T18:53:57.949Z,100.00
2018-08-24T18:56:24.912Z,100.00
2018-08-24T18:58:51.825Z,100.00
2018-08-24T19:01:18.767Z,100.00
2018-08-24T19:03:45.782Z,100.00
2018-08-24T19:06:12.727Z,100.00
2018-08-24T19:08:39.673Z,100.00
2018-08-24T19:11:12.229Z,100.00
2018-08-24T19:13:39.188Z,100.00
2018-08-24T19:16:06.122Z,100.00
2018-08-24T19:18:38.862Z,100.00
2018-08-24T19:21:11.428Z,100.00
2018-08-24T19:23:38.328Z,100.00
2018-08-24T19:26:05.314Z,100.00
2018-08-24T19:28:38.133Z,100.00
2018-08-24T19:31:05.174Z,100.00
2018-08-24T19:33:32.131Z,100.00
2018-08-24T19:35:59.088Z,100.00
2018-08-24T19:38:26.057Z,100.00
2018-08-24T19:40:58.740Z,100.00
2018-08-24T19:43:25.655Z,100.00
2018-08-24T19:45:52.598Z,100.00
2018-08-24T19:48:25.228Z,100.00
2018-08-24T19:50:52.102Z,100.00
2018-08-24T19:53:19.054Z,100.00
2018-08-24T19:55:46.001Z,100.00
2018-08-24T19:58:18.664Z,100.00
2018-08-24T20:00:45.627Z,100.00
2018-08-24T20:03:12.622Z,100.00
2018-08-24T20:05:39.683Z,100.00
2018-08-24T20:08:12.312Z,100.00
2018-08-24T20:10:39.267Z,100.00
2018-08-24T20:13:06.314Z,100.00
2018-08-24T20:15:39.064Z,100.00
2018-08-24T20:18:06.173Z,100.00
2018-08-24T20:20:33.232Z,100.00
2018-08-24T20:23:00.180Z,100.00
2018-08-24T20:25:27.133Z,100.00
2018-08-24T20:27:54.081Z,100.00
2018-08-24T20:30:21.029Z,100.00
2018-08-24T20:32:47.969Z,100.00
2018-08-24T20:35:14.942Z,100.00
2018-08-24T20:37:41.892Z,100.00
2018-08-24T20:40:08.929Z,100.00
2018-08-24T20:42:35.893Z,100.00
2018-08-24T20:45:02.955Z,100.00
2018-08-24T20:47:29.919Z,100.00
2018-08-24T20:49:56.865Z,100.00
2018-08-24T20:52:23.817Z,100.00
2018-08-24T20:54:50.795Z,100.00
2018-08-24T20:57:17.726Z,100.00
2018-08-24T20:59:44.692Z,100.00
2018-08-24T21:02:11.603Z,100.00
2018-08-24T21:04:38.918Z,100.00
2018-08-24T21:07:05.932Z,100.00
2018-08-24T21:09:32.871Z,100.00
2018-08-24T21:11:59.867Z,100.00
2018-08-24T21:14:27.140Z,100.00
2018-08-24T21:16:54.174Z,100.00
2018-08-24T21:19:21.076Z,100.00
2018-08-24T21:21:48.049Z,100.00
2018-08-24T21:24:15.012Z,100.00
2018-08-24T21:26:42.015Z,100.00
2018-08-24T21:29:09.128Z,100.00
2018-08-24T21:31:36.050Z,100.00
2018-08-24T21:34:03.017Z,100.00
2018-08-24T21:36:29.985Z,100.00
2018-08-24T21:38:56.951Z,100.00
2018-08-24T21:41:24.132Z,100.00
2018-08-24T21:43:51.068Z,100.00
2018-08-24T21:46:18.311Z,100.00
2018-08-24T21:48:45.213Z,100.00
2018-08-24T21:51:12.162Z,100.00
2018-08-24T21:53:39.118Z,100.00
2018-08-24T21:56:06.506Z,100.00
2018-08-24T21:58:33.449Z,100.00
2018-08-24T22:01:00.444Z,100.00
2018-08-24T22:03:27.386Z,100.00
2018-08-24T22:05:54.296Z,100.00
2018-08-24T22:08:21.240Z,100.00
2018-08-24T22:10:48.213Z,100.00
2018-08-24T22:13:15.110Z,100.00
2018-08-24T22:15:42.069Z,100.00
2018-08-24T22:18:09.018Z,100.00
2018-08-24T22:20:35.970Z,100.00
2018-08-24T22:23:02.945Z,100.00
2018-08-24T22:25:29.920Z,100.00
2018-08-24T22:27:56.852Z,100.00
2018-08-24T22:30:23.787Z,100.00
2018-08-24T22:32:50.713Z,100.00
2018-08-24T22:35:17.646Z,100.00
2018-08-24T22:37:44.604Z,100.00
2018-08-24T22:40:11.545Z,100.00
2018-08-24T22:42:41.500Z,100.00
2018-08-24T22:45:08.433Z,100.00
2018-08-24T22:47:35.381Z,100.00
2018-08-24T22:50:02.317Z,100.00
2018-08-24T22:52:29.276Z,100.00
2018-08-24T22:54:56.218Z,100.00
2018-08-24T22:57:23.168Z,100.00
2018-08-24T22:59:50.149Z,100.00
2018-08-24T23:02:17.100Z,100.00
2018-08-24T23:04:44.071Z,100.00
2018-08-24T23:07:11.058Z,100.00
2018-08-24T23:09:37.993Z,100.00
2018-08-24T23:12:05.239Z,100.00
2018-08-24T23:14:32.213Z,100.00
2018-08-24T23:16:59.166Z,100.00
2018-08-24T23:19:26.133Z,100.00
2018-08-24T23:21:53.077Z,100.00
2018-08-24T23:24:19.980Z,100.00
2018-08-24T23:26:46.938Z,100.00
2018-08-24T23:29:13.948Z,100.00
2018-08-24T23:31:40.892Z,100.00
2018-08-24T23:34:08.116Z,100.00
2018-08-24T23:36:35.000Z,100.00
2018-08-24T23:39:02.613Z,100.00
2018-08-24T23:41:29.545Z,100.00
2018-08-24T23:43:56.503Z,100.00
2018-08-24T23:46:23.429Z,100.00
2018-08-24T23:48:50.383Z,100.00
2018-08-24T23:51:17.333Z,100.00
2018-08-24T23:53:44.313Z,100.00
2018-08-24T23:56:11.240Z,100.00
2018-08-24T23:58:38.195Z,100.00
